createdAt,value
2023-03-17T00:00:23.318Z,100.00
2023-03-17T00:01:25.750Z,100.00
2023-03-17T00:02:28.257Z,100.00
2023-03-17T00:03:33.982Z,100.00
2023-03-17T00:04:37.262Z,100.00
2023-03-17T00:05:39.330Z,100.00
2023-03-17T00:06:41.975Z,100.00
2023-03-17T00:07:45.393Z,100.00
2023-03-17T00:08:47.413Z,100.00
2023-03-17T00:09:49.370Z,100.00
2023-03-17T00:10:52.187Z,100.00
2023-03-17T00:11:54.080Z,100.00
2023-03-17T00:12:56.389Z,100.00
2023-03-17T00:13:58.291Z,100.00
2023-03-17T00:15:01.275Z,100.00
2023-03-17T00:16:08.144Z,100.00
2023-03-17T00:17:16.170Z,100.00
2023-03-17T00:18:20.565Z,100.00
2023-03-17T00:19:32.151Z,100.00
2023-03-17T00:20:34.346Z,100.00
2023-03-17T00:21:37.143Z,100.00
2023-03-17T00:22:39.157Z,100.00
2023-03-17T00:23:44.823Z,100.00
2023-03-17T00:24:47.038Z,100.00
2023-03-17T00:25:50.613Z,100.00
2023-03-17T00:26:52.629Z,100.00
2023-03-17T00:27:56.033Z,100.00
2023-03-17T00:28:58.027Z,100.00
2023-03-17T00:29:59.984Z,100.00
2023-03-17T00:31:05.726Z,100.00
2023-03-17T00:32:19.994Z,100.00
2023-03-17T00:33:25.791Z,100.00
2023-03-17T00:34:29.370Z,100.00
2023-03-17T00:35:32.071Z,100.00
2023-03-17T00:36:34.962Z,100.00
2023-03-17T00:37:37.478Z,100.00
2023-03-17T00:38:39.629Z,100.00
2023-03-17T00:39:42.104Z,100.00
2023-03-17T00:41:48.161Z,100.00
2023-03-17T00:42:51.847Z,100.00
2023-03-17T00:43:54.417Z,100.00
2023-03-17T00:44:56.671Z,100.00
2023-03-17T00:45:58.762Z,100.00
2023-03-17T00:47:01.267Z,100.00
2023-03-17T00:48:07.591Z,99.95
2023-03-17T00:49:19.212Z,99.54
2023-03-17T00:50:24.317Z,99.21
2023-03-17T00:51:26.349Z,99.11
2023-03-17T00:52:28.239Z,99.29
2023-03-17T00:53:30.312Z,99.08
2023-03-17T00:54:32.186Z,98.94
2023-03-17T00:55:34.098Z,99.02
2023-03-17T00:56:38.750Z,99.44
2023-03-17T00:57:41.939Z,99.48
2023-03-17T00:58:44.781Z,99.48
2023-03-17T00:59:47.579Z,99.22
2023-03-17T01:00:49.904Z,99.18
2023-03-17T01:01:53.193Z,99.23
2023-03-17T01:02:56.585Z,99.20
2023-03-17T01:03:58.523Z,98.48
2023-03-17T01:05:06.259Z,98.48
2023-03-17T01:06:09.379Z,98.78
2023-03-17T01:07:11.609Z,98.78
2023-03-17T01:08:13.687Z,98.91
2023-03-17T01:09:17.086Z,99.03
2023-03-17T01:10:22.695Z,99.44
2023-03-17T01:11:24.890Z,99.33
2023-03-17T01:12:26.911Z,99.24
2023-03-17T01:13:29.536Z,98.98
2023-03-17T01:14:31.467Z,98.69
2023-03-17T01:15:33.714Z,98.55
2023-03-17T01:16:36.334Z,98.61
2023-03-17T01:17:39.295Z,98.62
2023-03-17T01:18:41.357Z,98.52
2023-03-17T01:19:45.404Z,98.51
2023-03-17T01:20:48.145Z,98.64
2023-03-17T01:21:50.310Z,98.60
2023-03-17T01:22:53.059Z,98.60
2023-03-17T01:23:56.208Z,98.87
2023-03-17T01:24:58.321Z,98.54
2023-03-17T01:26:00.472Z,97.93
2023-03-17T01:27:03.181Z,97.55
2023-03-17T01:28:05.732Z,97.75
2023-03-17T01:29:07.657Z,98.06
2023-03-17T01:30:32.179Z,98.17
2023-03-17T01:31:34.714Z,98.53
2023-03-17T01:32:37.904Z,98.09
2023-03-17T01:33:40.014Z,97.74
2023-03-17T01:34:41.921Z,97.77
2023-03-17T01:35:44.265Z,97.78
2023-03-17T01:36:46.342Z,97.72
2023-03-17T01:37:48.290Z,97.75
2023-03-17T01:38:50.174Z,97.79
2023-03-17T01:39:52.200Z,98.00
2023-03-17T01:40:55.176Z,98.12
2023-03-17T01:42:01.912Z,98.09
2023-03-17T01:43:10.664Z,97.61
2023-03-17T01:44:18.113Z,97.63
2023-03-17T01:45:57.713Z,97.89
2023-03-17T01:47:00.046Z,98.21
2023-03-17T01:48:01.917Z,97.78
2023-03-17T01:49:07.573Z,98.04
2023-03-17T01:50:10.695Z,97.70
2023-03-17T01:51:22.666Z,97.44
2023-03-17T01:52:27.521Z,97.44
2023-03-17T01:53:29.773Z,97.74
2023-03-17T01:54:47.292Z,97.69
2023-03-17T01:55:51.450Z,97.79
2023-03-17T01:56:57.045Z,97.79
2023-03-17T01:57:59.218Z,97.46
2023-03-17T01:59:04.231Z,97.15
2023-03-17T02:00:13.551Z,97.35
2023-03-17T02:01:15.798Z,97.20
2023-03-17T02:02:24.163Z,97.35
2023-03-17T02:03:26.727Z,97.82
2023-03-17T02:04:29.158Z,97.69
2023-03-17T02:05:32.250Z,97.75
2023-03-17T02:06:35.853Z,97.91
2023-03-17T02:07:40.098Z,97.70
2023-03-17T02:08:42.013Z,97.84
2023-03-17T02:09:44.322Z,97.73
2023-03-17T02:10:48.395Z,97.95
2023-03-17T02:11:50.951Z,97.90
2023-03-17T02:12:56.066Z,98.07
2023-03-17T02:13:57.983Z,97.90
2023-03-17T02:14:59.899Z,98.11
2023-03-17T02:16:02.520Z,98.00
2023-03-17T02:17:05.436Z,98.15
2023-03-17T02:18:09.901Z,98.03
2023-03-17T02:19:11.894Z,97.57
2023-03-17T02:20:20.881Z,97.26
2023-03-17T02:21:35.884Z,96.99
2023-03-17T02:22:37.883Z,97.07
2023-03-17T02:23:39.854Z,97.58
2023-03-17T02:24:54.479Z,97.80
2023-03-17T02:25:56.405Z,97.94
2023-03-17T02:27:02.253Z,98.01
2023-03-17T02:29:19.698Z,97.82
2023-03-17T02:30:23.800Z,97.58
2023-03-17T02:31:27.935Z,97.41
2023-03-17T02:32:29.983Z,97.84
2023-03-17T02:33:32.045Z,97.80
2023-03-17T02:34:33.946Z,97.50
2023-03-17T02:35:35.885Z,97.18
2023-03-17T02:36:38.423Z,96.93
2023-03-17T02:37:41.142Z,97.32
2023-03-17T02:38:43.326Z,97.57
2023-03-17T02:39:46.235Z,97.66
2023-03-17T02:40:48.848Z,97.59
2023-03-17T02:41:51.299Z,97.73
2023-03-17T02:42:54.629Z,98.01
2023-03-17T02:43:56.536Z,98.28
2023-03-17T02:44:59.524Z,98.18
2023-03-17T02:46:01.617Z,97.82
2023-03-17T02:47:05.005Z,97.46
2023-03-17T02:48:07.561Z,97.55
2023-03-17T02:49:11.912Z,98.24
2023-03-17T02:50:19.663Z,98.33
2023-03-17T02:51:21.793Z,98.16
2023-03-17T02:52:24.865Z,98.06
2023-03-17T02:53:26.976Z,97.97
2023-03-17T02:54:28.978Z,98.31
2023-03-17T02:55:30.862Z,98.39
2023-03-17T02:56:33.601Z,98.31
2023-03-17T02:57:36.683Z,98.19
2023-03-17T02:58:38.686Z,98.11
2023-03-17T02:59:40.887Z,98.20
2023-03-17T03:00:42.988Z,98.15
2023-03-17T03:01:45.078Z,98.45
2023-03-17T03:02:47.163Z,98.45
2023-03-17T03:03:49.146Z,98.66
2023-03-17T03:04:51.029Z,98.58
2023-03-17T03:05:53.027Z,98.36
2023-03-17T03:06:55.019Z,98.10
2023-03-17T03:07:58.065Z,97.77
2023-03-17T03:09:00.271Z,97.52
2023-03-17T03:10:04.507Z,98.12
2023-03-17T03:11:06.773Z,98.23
2023-03-17T03:12:09.146Z,98.45
2023-03-17T03:13:11.831Z,98.82
2023-03-17T03:14:14.028Z,98.48
2023-03-17T03:15:16.118Z,98.33
2023-03-17T03:16:19.423Z,98.34
2023-03-17T03:17:21.565Z,97.98
2023-03-17T03:18:24.445Z,97.71
2023-03-17T03:19:26.338Z,98.12
2023-03-17T03:20:29.053Z,98.42
2023-03-17T03:21:31.510Z,98.55
2023-03-17T03:22:33.779Z,98.51
2023-03-17T03:23:36.086Z,98.64
2023-03-17T03:24:38.603Z,98.44
2023-03-17T03:25:43.450Z,98.58
2023-03-17T03:26:45.486Z,98.67
2023-03-17T03:27:47.358Z,98.48
2023-03-17T03:28:49.976Z,98.47
2023-03-17T03:29:51.872Z,98.72
2023-03-17T03:30:54.126Z,98.98
2023-03-17T03:31:56.104Z,99.30
2023-03-17T03:32:58.461Z,99.07
2023-03-17T03:34:00.501Z,98.73
2023-03-17T03:35:02.817Z,98.38
2023-03-17T03:36:06.895Z,98.64
2023-03-17T03:37:09.516Z,99.44
2023-03-17T03:38:12.130Z,99.19
2023-03-17T03:39:14.618Z,99.39
2023-03-17T03:40:17.213Z,99.15
2023-03-17T03:41:19.090Z,99.14
2023-03-17T03:42:21.018Z,99.45
2023-03-17T03:43:24.179Z,99.54
2023-03-17T03:44:26.566Z,99.77
2023-03-17T03:45:29.098Z,99.88
2023-03-17T03:46:31.197Z,99.96
2023-03-17T03:47:33.982Z,99.84
2023-03-17T03:48:36.032Z,99.61
2023-03-17T03:49:38.881Z,99.55
2023-03-17T03:50:40.880Z,99.47
2023-03-17T03:51:42.754Z,99.08
2023-03-17T03:52:44.854Z,99.22
2023-03-17T03:53:47.199Z,99.62
2023-03-17T03:54:49.095Z,99.34
2023-03-17T03:55:51.492Z,99.08
2023-03-17T03:56:53.464Z,99.00
2023-03-17T03:57:56.030Z,98.68
2023-03-17T03:58:58.044Z,98.98
2023-03-17T04:00:00.300Z,99.13
2023-03-17T04:01:06.808Z,99.29
2023-03-17T04:02:09.821Z,99.09
2023-03-17T04:03:13.025Z,98.80
2023-03-17T04:04:15.016Z,98.66
2023-03-17T04:05:17.860Z,98.87
2023-03-17T04:06:21.585Z,99.22
2023-03-17T04:07:24.148Z,99.49
2023-03-17T04:08:26.046Z,99.30
2023-03-17T04:09:29.066Z,99.70
2023-03-17T04:10:32.121Z,99.48
2023-03-17T04:11:35.336Z,99.18
2023-03-17T04:12:38.166Z,99.13
2023-03-17T04:13:40.077Z,98.96
2023-03-17T04:14:42.078Z,98.86
2023-03-17T04:15:43.953Z,98.84
2023-03-17T04:16:46.125Z,98.95
2023-03-17T04:17:48.329Z,99.02
2023-03-17T04:18:50.295Z,98.99
2023-03-17T04:19:52.237Z,99.02
2023-03-17T04:20:54.330Z,99.44
2023-03-17T04:21:56.196Z,99.38
2023-03-17T04:22:58.092Z,99.55
2023-03-17T04:23:59.973Z,99.60
2023-03-17T04:25:01.849Z,99.63
2023-03-17T04:26:04.133Z,99.56
2023-03-17T04:27:06.432Z,99.54
2023-03-17T04:28:08.847Z,99.52
2023-03-17T04:29:10.737Z,99.18
2023-03-17T04:30:14.072Z,99.20
2023-03-17T04:31:16.224Z,99.38
2023-03-17T04:32:18.170Z,99.58
2023-03-17T04:33:20.349Z,99.58
2023-03-17T04:34:22.310Z,99.86
2023-03-17T04:35:24.200Z,99.63
2023-03-17T04:36:27.531Z,99.73
2023-03-17T04:37:29.473Z,99.16
2023-03-17T04:38:31.369Z,99.24
2023-03-17T04:39:33.469Z,99.21
2023-03-17T04:40:35.456Z,99.06
2023-03-17T04:41:37.974Z,98.90
2023-03-17T04:42:40.385Z,98.64
2023-03-17T04:43:42.297Z,98.64
2023-03-17T04:44:44.324Z,98.99
2023-03-17T04:45:46.265Z,99.31
2023-03-17T04:46:49.791Z,99.17
2023-03-17T04:47:51.691Z,98.91
2023-03-17T04:48:53.794Z,98.87
2023-03-17T04:49:56.111Z,98.77
2023-03-17T04:50:58.620Z,98.54
2023-03-17T04:52:00.580Z,98.70
2023-03-17T04:53:02.588Z,99.05
2023-03-17T04:54:06.267Z,98.89
2023-03-17T04:55:10.455Z,98.85
2023-03-17T04:56:12.468Z,99.11
2023-03-17T04:57:17.057Z,98.82
2023-03-17T04:58:30.399Z,98.83
2023-03-17T04:59:23.645Z,99.24
2023-03-17T05:00:26.105Z,99.54
2023-03-17T05:01:28.282Z,99.58
2023-03-17T05:02:30.637Z,99.20
2023-03-17T05:03:34.016Z,98.90
2023-03-17T05:04:36.395Z,99.13
2023-03-17T05:05:38.535Z,99.26
2023-03-17T05:06:40.633Z,99.18
2023-03-17T05:07:42.563Z,99.39
2023-03-17T05:08:44.660Z,99.32
2023-03-17T05:09:47.302Z,99.33
2023-03-17T05:10:49.946Z,99.40
2023-03-17T05:11:51.843Z,99.36
2023-03-17T05:12:53.729Z,99.38
2023-03-17T05:13:56.017Z,99.43
2023-03-17T05:14:57.923Z,99.37
2023-03-17T05:16:00.460Z,99.44
2023-03-17T05:17:02.861Z,99.55
2023-03-17T05:18:05.900Z,99.47
2023-03-17T05:19:09.311Z,99.49
2023-03-17T05:20:12.755Z,99.29
2023-03-17T05:21:14.718Z,99.30
2023-03-17T05:22:16.623Z,99.53
2023-03-17T05:23:19.390Z,99.75
2023-03-17T05:24:21.268Z,99.58
2023-03-17T05:25:23.186Z,99.36
2023-03-17T05:26:25.835Z,99.39
2023-03-17T05:27:27.735Z,99.41
2023-03-17T05:28:29.857Z,99.32
2023-03-17T05:29:31.733Z,99.40
2023-03-17T05:30:34.869Z,99.21
2023-03-17T05:31:37.075Z,98.69
2023-03-17T05:32:39.058Z,98.63
2023-03-17T05:33:41.135Z,98.84
2023-03-17T05:34:43.928Z,99.07
2023-03-17T05:35:46.302Z,99.51
2023-03-17T05:36:48.469Z,99.43
2023-03-17T05:37:50.332Z,99.43
2023-03-17T05:38:52.279Z,99.25
2023-03-17T05:39:54.402Z,99.44
2023-03-17T05:40:56.408Z,99.13
2023-03-17T05:41:58.291Z,99.08
2023-03-17T05:43:00.742Z,99.24
2023-03-17T05:44:02.956Z,99.24
2023-03-17T05:45:05.638Z,99.07
2023-03-17T05:46:08.877Z,98.97
2023-03-17T05:47:11.052Z,99.21
2023-03-17T05:48:13.041Z,98.91
2023-03-17T05:49:15.424Z,99.16
2023-03-17T05:50:17.808Z,98.88
2023-03-17T05:51:19.707Z,98.86
2023-03-17T05:52:21.698Z,98.85
2023-03-17T05:53:23.841Z,98.92
2023-03-17T05:54:25.721Z,98.62
2023-03-17T05:55:27.705Z,98.29
2023-03-17T05:56:29.914Z,98.43
2023-03-17T05:57:31.799Z,98.38
2023-03-17T05:58:34.025Z,98.32
2023-03-17T05:59:36.195Z,98.35
2023-03-17T06:00:38.475Z,98.35
2023-03-17T06:01:40.560Z,98.55
2023-03-17T06:02:42.513Z,98.59
2023-03-17T06:03:44.621Z,98.32
2023-03-17T06:04:46.659Z,98.18
2023-03-17T06:05:48.752Z,98.22
2023-03-17T06:06:50.727Z,97.95
2023-03-17T06:07:56.247Z,98.33
2023-03-17T06:08:56.838Z,98.31
2023-03-17T06:09:58.725Z,98.33
2023-03-17T06:11:00.848Z,98.21
2023-03-17T06:12:03.645Z,98.36
2023-03-17T06:13:05.780Z,98.10
2023-03-17T06:14:07.808Z,98.29
2023-03-17T06:15:10.496Z,98.44
2023-03-17T06:16:14.144Z,98.62
2023-03-17T06:17:16.432Z,98.62
2023-03-17T06:18:18.608Z,98.40
2023-03-17T06:19:22.741Z,98.38
2023-03-17T06:20:25.104Z,98.48
2023-03-17T06:21:27.601Z,98.62
2023-03-17T06:22:29.753Z,98.65
2023-03-17T06:23:31.684Z,98.57
2023-03-17T06:24:34.652Z,98.54
2023-03-17T06:25:36.487Z,98.47
2023-03-17T06:26:38.669Z,98.34
2023-03-17T06:27:42.732Z,98.17
2023-03-17T06:28:44.876Z,98.08
2023-03-17T06:29:46.923Z,97.72
2023-03-17T06:30:49.130Z,97.44
2023-03-17T06:31:51.164Z,97.57
2023-03-17T06:32:54.138Z,97.43
2023-03-17T06:33:56.376Z,97.74
2023-03-17T06:34:58.295Z,98.11
2023-03-17T06:36:02.920Z,98.32
2023-03-17T06:37:04.866Z,98.16
2023-03-17T06:38:06.965Z,98.02
2023-03-17T06:39:09.554Z,98.03
2023-03-17T06:40:13.521Z,98.03
2023-03-17T06:41:16.031Z,98.00
2023-03-17T06:42:18.881Z,97.85
2023-03-17T06:43:20.776Z,97.54
2023-03-17T06:44:23.911Z,97.07
2023-03-17T06:45:28.800Z,97.00
2023-03-17T06:46:32.673Z,97.24
2023-03-17T06:47:34.979Z,97.00
2023-03-17T06:48:36.844Z,96.92
2023-03-17T06:49:38.900Z,97.60
2023-03-17T06:50:42.607Z,97.48
2023-03-17T06:51:44.503Z,97.52
2023-03-17T06:52:46.951Z,97.29
2023-03-17T06:53:48.953Z,97.18
2023-03-17T06:54:51.605Z,97.39
2023-03-17T06:55:53.670Z,97.19
2023-03-17T06:56:55.796Z,97.15
2023-03-17T06:57:57.859Z,96.69
2023-03-17T06:58:59.748Z,96.87
2023-03-17T07:00:02.175Z,96.75
2023-03-17T07:01:04.803Z,96.97
2023-03-17T07:02:06.786Z,97.09
2023-03-17T07:03:09.164Z,96.75
2023-03-17T07:04:11.832Z,96.25
2023-03-17T07:05:15.041Z,96.53
2023-03-17T07:06:17.054Z,96.45
2023-03-17T07:07:19.054Z,96.38
2023-03-17T07:08:21.595Z,96.50
2023-03-17T07:09:23.752Z,96.82
2023-03-17T07:10:27.129Z,96.76
2023-03-17T07:11:29.452Z,96.36
2023-03-17T07:12:31.375Z,96.18
2023-03-17T07:13:34.350Z,96.61
2023-03-17T07:14:37.228Z,96.81
2023-03-17T07:15:40.535Z,97.26
2023-03-17T07:16:43.807Z,97.22
2023-03-17T07:17:46.215Z,97.17
2023-03-17T07:18:48.165Z,97.51
2023-03-17T07:19:50.320Z,97.30
2023-03-17T07:20:53.342Z,97.16
2023-03-17T07:21:55.290Z,96.96
2023-03-17T07:22:58.882Z,96.71
2023-03-17T07:24:00.906Z,96.64
2023-03-17T07:25:03.054Z,96.56
2023-03-17T07:26:05.508Z,96.55
2023-03-17T07:27:07.827Z,97.21
2023-03-17T07:28:09.738Z,96.78
2023-03-17T07:29:11.998Z,96.52
2023-03-17T07:30:14.463Z,96.48
2023-03-17T07:31:16.475Z,96.43
2023-03-17T07:32:18.987Z,96.17
2023-03-17T07:33:21.050Z,96.72
2023-03-17T07:34:23.002Z,96.86
2023-03-17T07:35:25.115Z,97.05
2023-03-17T07:36:27.404Z,97.05
2023-03-17T07:37:29.292Z,96.95
2023-03-17T07:38:31.218Z,96.47
2023-03-17T07:39:34.342Z,96.32
2023-03-17T07:40:36.349Z,96.10
2023-03-17T07:41:38.365Z,96.32
2023-03-17T07:42:40.332Z,96.49
2023-03-17T07:43:42.230Z,97.08
2023-03-17T07:44:46.073Z,97.06
2023-03-17T07:45:48.450Z,96.88
2023-03-17T07:46:51.584Z,96.56
2023-03-17T07:47:54.248Z,96.53
2023-03-17T07:48:56.128Z,96.84
2023-03-17T07:49:58.069Z,96.76
2023-03-17T07:51:00.275Z,96.75
2023-03-17T07:52:03.902Z,96.43
2023-03-17T07:53:05.854Z,96.39
2023-03-17T07:54:09.378Z,96.45
2023-03-17T07:55:11.794Z,96.81
2023-03-17T07:56:13.898Z,97.21
2023-03-17T07:57:15.894Z,97.01
2023-03-17T07:58:18.280Z,96.79
2023-03-17T07:59:20.402Z,96.37
2023-03-17T08:00:23.627Z,95.95
2023-03-17T08:01:27.447Z,96.25
2023-03-17T08:02:29.816Z,96.74
2023-03-17T08:03:32.602Z,96.72
2023-03-17T08:04:35.291Z,96.77
2023-03-17T08:05:37.502Z,96.13
2023-03-17T08:06:41.653Z,96.13
2023-03-17T08:07:44.336Z,96.11
2023-03-17T08:08:48.150Z,96.27
2023-03-17T08:09:50.232Z,96.51
2023-03-17T08:10:52.755Z,96.37
2023-03-17T08:11:54.790Z,96.21
2023-03-17T08:12:56.786Z,95.89
2023-03-17T08:13:59.221Z,96.25
2023-03-17T08:15:02.330Z,96.42
2023-03-17T08:16:05.428Z,96.37
2023-03-17T08:17:07.774Z,96.48
2023-03-17T08:18:09.829Z,96.10
2023-03-17T08:19:11.801Z,95.86
2023-03-17T08:20:14.288Z,95.97
2023-03-17T08:21:16.250Z,96.33
2023-03-17T08:22:20.106Z,96.13
2023-03-17T08:23:22.416Z,95.93
2023-03-17T08:24:24.449Z,95.61
2023-03-17T08:25:28.853Z,95.49
2023-03-17T08:26:32.546Z,95.27
2023-03-17T08:27:35.218Z,95.25
2023-03-17T08:28:37.256Z,95.14
2023-03-17T08:29:39.331Z,95.48
2023-03-17T08:30:43.318Z,95.18
2023-03-17T08:31:46.728Z,95.32
2023-03-17T08:32:48.848Z,95.44
2023-03-17T08:33:53.408Z,95.32
2023-03-17T08:34:55.345Z,95.40
2023-03-17T08:35:57.268Z,95.69
2023-03-17T08:37:00.597Z,95.80
2023-03-17T08:38:03.639Z,95.93
2023-03-17T08:39:05.808Z,95.73
2023-03-17T08:40:10.167Z,95.60
2023-03-17T08:41:15.091Z,95.80
2023-03-17T08:42:17.432Z,95.86
2023-03-17T08:43:19.456Z,95.52
2023-03-17T08:44:21.789Z,95.30
2023-03-17T08:45:24.603Z,95.27
2023-03-17T08:46:29.622Z,95.13
2023-03-17T08:47:33.010Z,95.11
2023-03-17T08:48:36.378Z,94.80
2023-03-17T08:49:38.518Z,94.88
2023-03-17T08:50:40.868Z,95.09
2023-03-17T08:51:44.409Z,94.63
2023-03-17T08:52:47.192Z,94.75
2023-03-17T08:53:50.188Z,94.75
2023-03-17T08:54:52.942Z,94.85
2023-03-17T08:55:57.053Z,94.75
2023-03-17T08:56:59.129Z,94.20
2023-03-17T08:58:02.684Z,94.85
2023-03-17T08:59:06.485Z,94.83
2023-03-17T09:00:11.111Z,95.00
2023-03-17T09:01:14.780Z,94.68
2023-03-17T09:02:16.882Z,94.80
2023-03-17T09:03:19.879Z,94.99
2023-03-17T09:04:22.193Z,94.95
2023-03-17T09:05:24.988Z,94.92
2023-03-17T09:06:29.324Z,95.38
2023-03-17T09:07:31.690Z,95.38
2023-03-17T09:08:35.177Z,95.02
2023-03-17T09:09:37.204Z,95.03
2023-03-17T09:10:39.487Z,95.20
2023-03-17T09:11:41.413Z,94.99
2023-03-17T09:12:43.583Z,94.47
2023-03-17T09:13:47.279Z,94.17
2023-03-17T09:14:49.442Z,94.39
2023-03-17T09:15:52.257Z,94.24
2023-03-17T09:16:54.880Z,94.28
2023-03-17T09:17:57.805Z,93.77
2023-03-17T09:19:00.149Z,93.24
2023-03-17T09:20:02.370Z,93.64
2023-03-17T09:21:04.751Z,93.98
2023-03-17T09:22:07.235Z,93.72
2023-03-17T09:23:10.173Z,93.50
2023-03-17T09:24:12.240Z,93.62
2023-03-17T09:25:16.288Z,93.71
2023-03-17T09:26:20.132Z,93.63
2023-03-17T09:27:22.150Z,93.95
2023-03-17T09:28:24.050Z,94.00
2023-03-17T09:29:26.929Z,94.40
2023-03-17T09:30:29.600Z,93.95
2023-03-17T09:31:32.871Z,94.16
2023-03-17T09:32:35.215Z,94.06
2023-03-17T09:33:41.060Z,94.04
2023-03-17T09:34:43.363Z,94.07
2023-03-17T09:35:45.480Z,93.75
2023-03-17T09:36:47.957Z,93.61
2023-03-17T09:37:49.967Z,93.18
2023-03-17T09:38:52.594Z,92.82
2023-03-17T09:39:54.531Z,92.64
2023-03-17T09:41:09.914Z,92.89
2023-03-17T09:42:24.603Z,92.67
2023-03-17T09:43:42.103Z,92.63
2023-03-17T09:45:21.522Z,92.79
2023-03-17T09:46:45.697Z,92.53
2023-03-17T09:48:12.557Z,93.46
2023-03-17T09:49:20.670Z,93.47
2023-03-17T09:50:45.056Z,93.47
2023-03-17T09:51:48.799Z,93.44
2023-03-17T09:52:51.586Z,93.15
2023-03-17T09:54:03.634Z,93.20
2023-03-17T09:55:08.724Z,92.96
2023-03-17T09:56:13.738Z,92.98
2023-03-17T09:57:22.188Z,93.27
2023-03-17T09:58:35.572Z,92.84
2023-03-17T09:59:44.271Z,92.80
2023-03-17T10:00:46.477Z,92.71
2023-03-17T10:01:49.130Z,93.19
2023-03-17T10:02:51.597Z,93.47
2023-03-17T10:03:53.980Z,93.33
2023-03-17T10:04:56.735Z,93.34
2023-03-17T10:06:02.860Z,93.61
2023-03-17T10:07:05.957Z,93.29
2023-03-17T10:08:30.732Z,92.93
2023-03-17T10:09:31.573Z,93.14
2023-03-17T10:10:55.307Z,92.93
2023-03-17T10:12:28.579Z,93.05
2023-03-17T10:13:55.178Z,92.45
2023-03-17T10:15:03.736Z,92.22
2023-03-17T10:16:08.500Z,92.57
2023-03-17T10:17:17.570Z,92.40
2023-03-17T10:18:23.257Z,92.31
2023-03-17T10:19:31.992Z,92.37
2023-03-17T10:20:37.440Z,92.00
2023-03-17T10:21:43.224Z,92.74
2023-03-17T10:22:57.640Z,93.05
2023-03-17T10:24:01.984Z,92.45
2023-03-17T10:25:16.922Z,92.65
2023-03-17T10:26:38.656Z,92.92
2023-03-17T10:27:43.889Z,92.83
2023-03-17T10:28:45.814Z,92.82
2023-03-17T10:29:48.703Z,92.72
2023-03-17T10:30:51.507Z,92.46
2023-03-17T10:31:56.348Z,92.14
2023-03-17T10:33:01.940Z,91.71
2023-03-17T10:34:19.955Z,91.57
2023-03-17T10:35:23.852Z,91.94
2023-03-17T10:36:38.179Z,91.92
2023-03-17T10:37:43.290Z,91.92
2023-03-17T10:38:51.756Z,91.47
2023-03-17T10:39:56.974Z,91.62
2023-03-17T10:41:02.512Z,91.93
2023-03-17T10:42:22.984Z,92.36
2023-03-17T10:43:30.801Z,92.11
2023-03-17T10:44:57.239Z,91.52
2023-03-17T10:46:05.937Z,91.74
2023-03-17T10:47:20.176Z,91.55
2023-03-17T10:48:22.505Z,91.81
2023-03-17T10:49:24.600Z,91.77
2023-03-17T10:50:30.723Z,91.52
2023-03-17T10:51:36.489Z,91.67
2023-03-17T10:52:39.014Z,91.45
2023-03-17T10:53:42.117Z,91.29
2023-03-17T10:54:50.866Z,91.13
2023-03-17T10:56:08.286Z,90.83
2023-03-17T10:57:12.930Z,91.56
2023-03-17T10:58:24.198Z,91.98
2023-03-17T11:00:36.182Z,91.36
2023-03-17T11:01:41.315Z,91.46
2023-03-17T11:02:47.088Z,91.41
2023-03-17T11:03:49.840Z,91.90
2023-03-17T11:05:01.663Z,91.95
2023-03-17T11:06:15.661Z,92.12
2023-03-17T11:07:20.776Z,92.30
2023-03-17T11:08:23.779Z,92.12
2023-03-17T11:09:27.481Z,92.25
2023-03-17T11:10:33.522Z,92.06
2023-03-17T11:11:47.747Z,92.45
2023-03-17T11:12:56.242Z,92.43
2023-03-17T11:14:08.066Z,92.50
2023-03-17T11:15:15.607Z,92.51
2023-03-17T11:16:23.181Z,92.50
2023-03-17T11:17:40.808Z,92.27
2023-03-17T11:18:45.531Z,92.14
2023-03-17T11:19:51.551Z,92.07
2023-03-17T11:21:03.589Z,91.63
2023-03-17T11:22:09.339Z,91.49
2023-03-17T11:23:24.300Z,91.52
2023-03-17T11:24:33.608Z,91.65
2023-03-17T11:25:39.430Z,91.89
2023-03-17T11:26:51.012Z,91.59
2023-03-17T11:28:07.397Z,92.27
2023-03-17T11:29:45.311Z,92.33
2023-03-17T11:30:54.125Z,92.45
2023-03-17T11:32:12.232Z,92.05
2023-03-17T11:33:26.661Z,91.62
2023-03-17T11:34:41.431Z,91.64
2023-03-17T11:36:20.960Z,91.68
2023-03-17T11:37:42.231Z,91.83
2023-03-17T11:39:16.792Z,92.28
2023-03-17T11:40:25.381Z,92.62
2023-03-17T11:41:37.743Z,92.68
2023-03-17T11:43:16.943Z,92.22
2023-03-17T11:44:37.791Z,91.75
2023-03-17T11:45:52.794Z,91.59
2023-03-17T11:47:04.748Z,91.37
2023-03-17T11:48:28.390Z,91.87
2023-03-17T11:49:38.180Z,91.96
2023-03-17T11:51:05.049Z,91.71
2023-03-17T11:52:23.221Z,91.52
2023-03-17T11:53:31.969Z,92.22
2023-03-17T11:56:00.342Z,92.30
2023-03-17T11:57:05.433Z,91.96
2023-03-17T11:58:11.123Z,91.83
2023-03-17T11:59:19.874Z,91.67
2023-03-17T12:00:32.091Z,91.50
2023-03-17T12:02:02.595Z,91.42
2023-03-17T12:03:37.843Z,91.51
2023-03-17T12:04:49.340Z,91.17
2023-03-17T12:05:53.113Z,91.65
2023-03-17T12:07:02.023Z,91.72
2023-03-17T12:08:13.605Z,92.27
2023-03-17T12:09:43.684Z,92.05
2023-03-17T12:10:49.547Z,92.10
2023-03-17T12:11:54.603Z,91.90
2023-03-17T12:13:03.128Z,91.58
2023-03-17T12:14:08.438Z,91.87
2023-03-17T12:15:20.898Z,91.80
2023-03-17T12:16:38.905Z,91.84
2023-03-17T12:17:47.778Z,91.86
2023-03-17T12:19:05.702Z,91.63
2023-03-17T12:20:14.572Z,91.55
2023-03-17T12:21:45.137Z,91.66
2023-03-17T12:23:07.790Z,92.22
2023-03-17T12:24:29.032Z,91.91
2023-03-17T12:25:49.783Z,92.06
2023-03-17T12:26:55.607Z,92.34
2023-03-17T12:28:13.670Z,91.87
2023-03-17T12:29:22.420Z,91.47
2023-03-17T12:30:46.462Z,91.55
2023-03-17T12:32:01.696Z,91.73
2023-03-17T12:33:25.391Z,91.86
2023-03-17T12:35:47.293Z,92.19
2023-03-17T12:36:52.218Z,92.46
2023-03-17T12:38:10.162Z,92.17
2023-03-17T12:39:28.018Z,92.06
2023-03-17T12:40:36.984Z,92.33
2023-03-17T12:41:55.158Z,92.62
2023-03-17T12:43:15.738Z,92.60
2023-03-17T12:44:39.421Z,92.73
2023-03-17T12:45:47.916Z,92.85
2023-03-17T12:47:19.837Z,92.51
2023-03-17T12:48:40.912Z,92.61
2023-03-17T12:50:03.478Z,92.09
2023-03-17T12:51:24.653Z,92.64
2023-03-17T12:52:36.536Z,92.69
2023-03-17T12:53:42.236Z,92.67
2023-03-17T12:54:47.472Z,92.68
2023-03-17T12:55:51.705Z,92.35
2023-03-17T12:57:06.121Z,92.50
2023-03-17T12:58:26.737Z,92.53
2023-03-17T12:59:29.296Z,92.71
2023-03-17T13:00:34.582Z,92.75
2023-03-17T13:01:40.185Z,92.83
2023-03-17T13:02:45.931Z,92.70
2023-03-17T13:04:17.190Z,92.54
2023-03-17T13:05:23.023Z,92.60
2023-03-17T13:06:25.270Z,92.40
2023-03-17T13:07:49.397Z,92.42
2023-03-17T13:08:52.837Z,92.26
2023-03-17T13:09:58.510Z,92.60
2023-03-17T13:11:19.747Z,92.76
2023-03-17T13:12:43.613Z,92.96
2023-03-17T13:13:52.461Z,93.17
2023-03-17T13:14:57.277Z,93.08
2023-03-17T13:16:01.660Z,93.02
2023-03-17T13:17:07.056Z,92.86
2023-03-17T13:18:15.829Z,92.96
2023-03-17T13:19:23.256Z,92.99
2023-03-17T13:20:29.031Z,93.30
2023-03-17T13:21:34.598Z,93.04
2023-03-17T13:22:41.189Z,93.02
2023-03-17T13:23:46.960Z,93.03
2023-03-17T13:24:51.311Z,92.93
2023-03-17T13:25:54.302Z,92.73
2023-03-17T13:26:59.969Z,92.75
2023-03-17T13:28:15.119Z,92.91
2023-03-17T13:29:36.034Z,92.90
2023-03-17T13:30:41.838Z,92.93
2023-03-17T13:31:43.870Z,92.93
2023-03-17T13:32:58.836Z,93.00
2023-03-17T13:34:16.366Z,93.60
2023-03-17T13:35:22.516Z,93.77
2023-03-17T13:36:43.447Z,93.62
2023-03-17T13:38:00.939Z,93.33
2023-03-17T13:39:35.633Z,93.52
2023-03-17T13:41:10.651Z,93.77
2023-03-17T13:42:19.334Z,94.15
2023-03-17T13:43:34.029Z,93.46
2023-03-17T13:44:45.705Z,93.61
2023-03-17T13:45:48.157Z,93.70
2023-03-17T13:46:50.680Z,93.48
2023-03-17T13:47:55.100Z,93.45
2023-03-17T13:48:59.409Z,93.84
2023-03-17T13:50:17.252Z,94.20
2023-03-17T13:51:22.955Z,93.92
2023-03-17T13:52:34.684Z,93.44
2023-03-17T13:53:38.451Z,93.69
2023-03-17T13:54:49.004Z,93.52
2023-03-17T13:56:16.262Z,93.60
2023-03-17T13:57:25.826Z,93.48
2023-03-17T13:58:33.087Z,94.09
2023-03-17T13:59:57.104Z,94.10
2023-03-17T14:01:03.389Z,94.21
2023-03-17T14:02:20.855Z,93.97
2023-03-17T14:03:26.601Z,93.75
2023-03-17T14:04:32.315Z,93.82
2023-03-17T14:05:36.510Z,93.80
2023-03-17T14:06:39.317Z,93.62
2023-03-17T14:07:48.234Z,94.26
2023-03-17T14:08:53.928Z,94.59